Latest Coastal Weather Observations for Moorabbin Airport

IDV60701

Issued at 12:51 am EST Saturday 7 May 2016 (issued every 10 minutes, with the page automatically refreshed every 10 minutes)

About coastal observations | Map of coastal stations | Coastal observations for VIC | Marine services | Other Formats
Station Details ID: 086077 Name: MOORABBIN AIRPORT Lat: -37.98 Lon: 145.10 Height: 12.1 m
Data from the previous 72 hours. | See also: Recent months at Moorabbin Airport
Date/Time
EST
Temp

°C
Wind Pressure Rain
since 9am
mm
Weather Cloud Vis
km
Sea
Height
m
Swell
Dir
 
Speed
knots
Gust
knots
hPa Trend Height
m
Period
s
Dir
07/12:30am 11.7 CALM 0 0 1016.3 - 0.0 - - 10 - - - -
07/12:00am 12.8 ENE 1 3 1016.5 - 0.0 - - 10 - - - -
 
Date/Time
EST
Temp

°C
Wind Pressure Rain
since 9am
mm
Weather Cloud Vis
km
Sea
Height
m
Swell
Dir
 
Speed
knots
Gust
knots
hPa Trend Height
m
Period
s
Dir
06/11:30pm 13.0 NNE 3 4 1016.5 - 0.0 - - 10 - - - -
06/11:00pm 13.1 ESE 3 5 1016.5 - 0.0 - - 10 - - - -
06/10:30pm 13.3 SE 5 7 1016.8 - 0.0 - - 10 - - - -
06/10:00pm 13.9 ESE 6 8 1016.9 - 0.0 - - 10 - - - -
06/09:30pm 13.7 ESE 5 7 1016.8 - 0.0 - - 10 - - - -
06/09:00pm 13.7 ESE 7 7 1016.8 - 0.0 - - 10 - - - -
06/08:30pm 14.2 ESE 6 7 1016.9 - 0.0 - - 10 - - - -
06/08:00pm 14.5 ESE 6 8 1016.8 - 0.0 - Partly cloudy 10 - - - -
06/07:30pm 15.0 SE 6 8 1016.7 - 0.0 - - 10 - - - -
06/07:00pm 15.8 SE 9 11 1016.3 - 0.0 - - 10 - - - -
06/06:30pm 16.2 SE 9 12 1015.8 - 0.0 - - 10 - - - -
06/06:00pm 16.6 SE 6 8 1015.3 - 0.0 - - 10 - - - -
06/05:30pm 17.8 S 5 7 1014.6 - 0.0 - - 10 - - - -
06/05:00pm 18.6 SSW 7 9 1014.3 - 0.0 - - 10 - - - -
06/04:30pm 19.2 SSW 8 11 1014.1 - 0.0 - - 10 - - - -
06/04:00pm 19.9 SW 9 12 1013.8 - 0.0 - - 10 - - - -
06/03:30pm 22.0 NW 11 16 1013.4 - 0.0 - - 10 - - - -
06/03:00pm 24.1 N 14 22 1013.0 - 0.0 - - 10 - - - -
06/02:30pm 24.1 NNW 15 19 1013.1 - 0.0 - - 10 - - - -
06/02:00pm 23.8 N 16 21 1013.1 - 0.0 - - 10 - - - -
06/01:30pm 23.9 N 16 21 1013.3 - 0.0 - - 10 - - - -
06/01:00pm 23.8 NNW 15 20 1013.5 - 0.0 - - 10 - - - -
06/12:30pm 23.1 N 15 19 1013.9 - 0.0 - - 10 - - - -
06/12:00pm 22.8 NNW 14 20 1014.3 - 0.0 - - 10 - - - -
06/11:30am 22.6 NNW 15 21 1014.6 - 0.0 - - 10 - - - -
06/11:00am 22.3 NNW 16 24 1014.5 - 0.0 - - 10 - - - -
06/10:30am 21.4 N 18 25 1014.0 - 0.0 - - 10 - - - -
06/10:00am 20.7 N 19 27 1014.0 - 0.0 - - 10 - - - -
06/09:30am 19.7 N 19 26 1014.3 - 0.0 - - 10 - - - -
06/09:00am 19.0 N 17 23 1014.4 - 0.0 - - 10 - - - -
06/08:30am 18.2 N 14 19 1014.5 - 0.0 - - 10 - - - -
06/08:00am 17.3 N 15 18 1014.2 - 0.0 - - 10 - - - -
06/07:30am 16.7 N 13 16 1013.8 - 0.0 - - 10 - - - -
06/07:00am 16.6 N 15 21 1013.7 - 0.0 - - 10 - - - -
06/06:30am 16.3 N 16 19 1013.4 - 0.0 - - 10 - - - -
06/06:00am 15.8 N 14 17 1013.2 - 0.0 - - 10 - - - -
06/05:30am 15.7 N 14 19 1013.3 - 0.0 - - 10 - - - -
06/05:00am 15.7 N 15 19 1013.0 - 0.0 - - 10 - - - -
06/04:30am 15.2 N 12 15 1013.0 - 0.0 - - 10 - - - -
06/04:00am 14.5 N 9 11 1013.2 - 0.0 - - 10 - - - -
06/03:30am 15.2 N 8 11 1013.2 - 0.0 - - 10 - - - -
06/03:00am 15.6 N 10 13 1013.3 - 0.0 - - 10 - - - -
06/02:30am 15.7 N 11 13 1013.4 - 0.0 - - 10 - - - -
06/02:00am 16.0 N 11 15 1013.4 - 0.0 - - 10 - - - -
06/01:30am 16.0 NNW 10 13 1013.4 - 0.0 - - 10 - - - -
06/01:00am 16.3 NNW 10 12 1013.3 - 0.0 - - 10 - - - -
06/12:30am 16.5 NNW 9 13 1013.2 - 0.0 - - 10 - - - -
06/12:00am 17.1 N 9 14 1013.3 - 0.0 - - 10 - - - -
 
Date/Time
EST
Temp

°C
Wind Pressure Rain
since 9am
mm
Weather Cloud Vis
km
Sea
Height
m
Swell
Dir
 
Speed
knots
Gust
knots
hPa Trend Height
m
Period
s
Dir
05/11:30pm 17.3 N 12 16 1013.2 - 0.0 - - 10 - - - -
05/11:00pm 17.5 N 14 18 1013.2 - 0.0 - - 10 - - - -
05/10:30pm 17.7 N 14 20 1013.2 - 0.0 - - 10 - - - -
05/10:00pm 17.5 N 12 16 1013.5 - 0.0 - - 10 - - - -
05/09:30pm 17.5 N 10 14 1013.6 - 0.0 - - 10 - - - -
05/09:00pm 17.7 N 14 18 1013.4 - 0.0 - - 10 - - - -
05/08:30pm 17.7 N 15 19 1013.4 - 0.0 - - 10 - - - -
05/08:00pm 17.8 N 14 18 1013.3 - 0.0 - - 10 - - - -
05/07:30pm 17.7 N 13 17 1013.3 - 0.0 - - 10 - - - -
05/07:00pm 17.9 N 14 18 1013.1 - 0.0 - - 10 - - - -
05/06:30pm 18.4 N 14 19 1012.9 - 0.0 - - 10 - - - -
05/06:00pm 18.9 N 16 23 1012.6 - 0.0 - - 10 - - - -
05/05:30pm 19.2 N 18 25 1012.4 - 0.0 - - 10 - - - -
05/05:00pm 19.4 N 16 23 1012.3 - 0.0 - - 10 - - - -
05/04:30pm 19.7 N 18 27 1012.2 - 0.0 - - 10 - - - -
05/04:01pm 20.0 N 16 26 1012.6 - 0.0 - - 10 - - - -
05/04:00pm 20.1 N 17 26 1012.5 - 0.0 - - 10 - - - -
05/03:47pm 19.9 N 19 29 1012.3 - 0.0 - - 10 - - - -
05/03:30pm 20.3 N 19 27 1012.4 - 0.0 - - 10 - - - -
05/03:04pm 19.9 N 21 31 1012.3 - 0.0 - Partly cloudy 10 - - - -
05/03:00pm 20.0 N 19 28 1012.4 - 0.0 - Partly cloudy 10 - - - -
05/02:30pm 20.1 N 21 31 1012.5 - 0.0 - - 10 - - - -
05/02:07pm 20.4 N 20 30 1012.7 - 0.0 - - 10 - - - -
05/02:00pm 20.2 N 21 29 1012.8 - 0.0 - - 10 - - - -
05/01:30pm 20.1 NNW 22 33 1013.0 - 0.0 - - 10 - - - -
05/01:00pm 20.3 NNW 21 31 1013.2 - 0.0 - - 10 - - - -
05/12:36pm 20.3 NNW 22 32 1013.6 - 0.0 - - 10 - - - -
05/12:30pm 20.2 NNW 23 32 1013.6 - 0.0 - - 10 - - - -
05/12:08pm 20.2 N 21 31 1014.0 - 0.0 - - 10 - - - -
05/12:00pm 20.2 NNW 19 28 1014.1 - 0.0 - Mostly clear 10 - - - -
05/11:47am 20.0 N 17 27 1014.3 - 0.0 - Partly cloudy 10 - - - -
05/11:30am 19.7 NNW 18 25 1014.7 - 0.0 - Partly cloudy 10 - - - -
05/11:03am 18.9 N 17 27 1015.4 - 0.0 - Partly cloudy 10 - - - -
05/11:00am 19.0 N 18 25 1015.5 - 0.0 - Partly cloudy 10 - - - -
05/10:30am 18.1 N 19 27 1015.7 - 0.0 - Partly cloudy 10 - - - -
05/10:11am 17.1 N 15 27 1016.1 - 0.0 - Cloudy 10 - - - -
05/10:00am 16.9 N 13 17 1016.3 - 0.0 - Cloudy 10 - - - -
05/09:30am 16.6 N 15 21 1016.5 - 0.0 - Cloudy 10 - - - -
05/09:00am 15.7 NNE 11 15 1016.6 - 0.0 - Cloudy 10 - - - -
05/08:30am 15.5 N 13 17 1016.4 - 0.0 - Partly cloudy 10 - - - -
05/08:00am 15.0 N 11 14 1016.4 - 0.0 - - 10 - - - -
05/07:30am 14.6 N 11 15 1016.2 - 0.0 - - 10 - - - -
05/07:00am 15.1 N 13 16 1016.0 - 0.0 - - 10 - - - -
05/06:30am 15.2 N 14 21 1015.9 - 0.0 - - 10 - - - -
05/06:00am 15.0 N 15 20 1015.8 - 0.0 - - 10 - - - -
05/05:30am 14.9 N 15 20 1015.7 - 0.0 - - 10 - - - -
05/05:00am 14.3 N 14 19 1015.4 - 0.0 - - 10 - - - -
05/04:30am 14.1 N 13 17 1015.6 - 0.0 - - 10 - - - -
05/04:00am 13.8 N 13 16 1015.7 - 0.0 - - 10 - - - -
05/03:30am 14.2 N 12 16 1015.9 - 0.0 - - 10 - - - -
05/03:00am 13.7 N 11 15 1016.0 - 0.0 - - 10 - - - -
05/02:30am 13.7 NNW 11 14 1016.3 - 0.0 - - 10 - - - -
05/02:00am 13.9 N 11 14 1016.2 - 0.0 - - 10 - - - -
05/01:30am 14.0 N 11 15 1016.3 - 0.0 - Partly cloudy 10 - - - -
05/01:00am 13.7 N 8 11 1016.4 - 0.0 - Partly cloudy 10 - - - -
05/12:30am 13.9 N 9 12 1016.4 - 0.0 - Partly cloudy 10 - - - -
05/12:00am 14.9 N 12 17 1016.4 - 0.0 - Mostly cloudy 10 - - - -
 
Date/Time
EST
Temp

°C
Wind Pressure Rain
since 9am
mm
Weather Cloud Vis
km
Sea
Height
m
Swell
Dir
 
Speed
knots
Gust
knots
hPa Trend Height
m
Period
s
Dir
04/11:30pm 15.0 N 14 19 1016.3 - 0.0 - Cloudy 10 - - - -
04/11:00pm 15.1 N 14 19 1016.3 - 0.0 - Cloudy 10 - - - -
04/10:30pm 15.0 N 13 17 1016.6 - 0.0 - Partly cloudy 10 - - - -
04/10:00pm 15.2 N 14 19 1016.6 - 0.0 - Cloudy 10 - - - -
04/09:30pm 15.2 N 12 16 1016.7 - 0.0 - Cloudy 10 - - - -
04/09:00pm 15.1 N 13 18 1016.6 - 0.0 - Cloudy 10 - - - -
04/08:30pm 14.8 N 11 16 1016.4 - 0.0 - Cloudy 10 - - - -
04/08:00pm 15.1 N 13 18 1016.1 - 0.0 - Cloudy 10 - - - -
04/07:30pm 15.3 N 14 18 1016.0 - 0.0 - Cloudy 10 - - - -
04/07:00pm 15.1 N 13 19 1015.7 - 0.0 - Cloudy 10 - - - -
04/06:30pm 15.2 N 14 21 1015.4 - 0.0 - Cloudy 10 - - - -
04/06:00pm 15.6 N 12 16 1015.1 - 0.0 - Cloudy 10 - - - -
04/05:30pm 15.9 N 13 20 1014.8 - 0.0 - Cloudy 10 - - - -
04/05:00pm 16.2 NNW 11 15 1014.5 - 0.0 - Cloudy 10 - - - -
04/04:30pm 16.0 NNW 12 15 1014.3 - 0.0 - Cloudy 10 - - - -
04/04:00pm 16.6 NNW 13 18 1014.3 - 0.0 - Cloudy 10 - - - -
04/03:30pm 16.7 NNW 12 18 1014.2 - 0.0 - Cloudy 10 - - - -
04/03:00pm 16.6 NNW 12 17 1014.1 - 0.0 - Mostly cloudy 10 - - - -
04/02:30pm 16.7 NW 12 17 1014.0 - 0.0 - Cloudy 10 - - - -
04/02:00pm 17.4 NW 13 17 1014.0 - 0.0 - Partly cloudy 10 - - - -
04/01:30pm 17.4 WNW 12 18 1014.1 - 0.0 - Partly cloudy 10 - - - -
04/01:00pm 16.5 NW 13 18 1014.2 - 0.0 - Partly cloudy 10 - - - -
04/12:30pm 16.5 WNW 11 15 1014.6 - 0.0 - Partly cloudy 10 - - - -
04/12:00pm 16.3 NW 11 17 1015.0 - 0.0 - Mostly clear 10 - - - -
04/11:30am 16.0 NW 11 17 1015.2 - 0.0 - - 10 - - - -
04/11:00am 15.1 NNW 13 20 1015.2 - 0.0 - - 10 - - - -
04/10:30am 15.0 NW 11 15 1015.2 - 0.0 - - 10 - - - -
04/10:00am 14.2 NW 12 17 1015.4 - 0.0 - - 10 - - - -
04/09:30am 13.4 NNW 11 16 1015.4 - 0.0 - - 10 - - - -
04/09:00am 12.5 NNW 10 14 1015.2 - 5.0 - - 10 - - - -
04/08:30am 11.4 NNW 8 11 1015.0 - 5.0 - - 10 - - - -
04/08:00am 9.8 N 7 9 1014.6 - 5.0 - - 10 - - - -
04/07:30am 8.8 N 7 8 1014.2 - 5.0 - - 10 - - - -
04/07:00am 9.7 NNW 7 10 1013.7 - 5.0 - - 10 - - - -
04/06:30am 10.6 NW 8 12 1013.4 - 5.0 - - 10 - - - -
04/06:00am 11.0 NW 7 10 1012.8 - 5.0 - - 10 - - - -
04/05:30am 11.0 NW 7 11 1012.5 - 5.0 - - 10 - - - -
04/05:00am 11.3 NW 9 13 1011.8 - 5.0 - - 10 - - - -
04/04:30am 11.1 NW 7 11 1011.4 - 5.0 - - 10 - - - -
04/04:00am 11.3 NW 9 13 1011.3 - 5.0 - - 10 - - - -
04/03:30am 11.4 NW 8 11 1010.7 - 5.0 - - 10 - - - -
04/03:00am 11.3 NW 7 9 1010.4 - 5.0 - - 10 - - - -
04/02:30am 11.8 NW 7 10 1010.1 - 5.0 - - 10 - - - -
04/02:00am 12.2 NW 11 16 1009.8 - 5.0 - - 10 - - - -
04/01:30am 12.6 WNW 11 17 1009.8 - 5.0 - - 10 - - - -
04/01:00am 12.8 WNW 12 19 1009.7 - 5.0 - - 10 - - - -

Other Formats:

Comma delimited format used in spreadsheet applications
http://www.bom.gov.au/fwo/IDV60701/IDV60701.94870.axf

JavaScript Object Notation format (JSON) in row-major order
http://www.bom.gov.au/fwo/IDV60701/IDV60701.94870.json